TimeCDT,TemperatureF,Dew PointF,Humidity,Sea Level PressureIn,VisibilityMPH,Wind Direction,Wind SpeedMPH,Gust SpeedMPH,PrecipitationIn,Events,Conditions,WindDirDegrees,DateUTC
12:53 AM,61.0,55.0,81,29.98,10.0,NE,5.8,-,N/A,,Clear,50,2013-07-28 05:53:00
1:53 AM,61.0,53.1,75,29.98,10.0,Calm,Calm,-,N/A,,Clear,0,2013-07-28 06:53:00
2:53 AM,55.9,53.1,90,29.99,10.0,Calm,Calm,-,N/A,,Clear,0,2013-07-28 07:53:00
3:53 AM,53.1,52.0,96,30.00,10.0,SW,3.5,-,N/A,,Clear,230,2013-07-28 08:53:00
4:53 AM,53.1,51.1,93,30.00,10.0,Calm,Calm,-,N/A,,Clear,0,2013-07-28 09:53:00
5:53 AM,52.0,51.1,97,30.01,10.0,Calm,Calm,-,N/A,,Clear,0,2013-07-28 10:53:00
6:53 AM,55.9,55.0,97,30.03,10.0,Calm,Calm,-,N/A,,Clear,0,2013-07-28 11:53:00
7:53 AM,64.0,55.9,75,30.04,10.0,Calm,Calm,-,N/A,,Clear,0,2013-07-28 12:53:00
8:53 AM,68.0,55.9,65,30.05,10.0,South,3.5,-,N/A,,Clear,170,2013-07-28 13:53:00
9:53 AM,71.1,55.0,57,30.05,10.0,SE,5.8,-,N/A,,Clear,140,2013-07-28 14:53:00
10:53 AM,73.0,55.0,53,30.06,10.0,Calm,Calm,-,N/A,,Clear,0,2013-07-28 15:53:00
11:53 AM,75.9,52.0,43,30.05,10.0,Calm,Calm,-,N/A,,Clear,0,2013-07-28 16:53:00
12:53 PM,75.9,53.1,45,30.04,10.0,WSW,4.6,-,N/A,,Clear,250,2013-07-28 17:53:00
1:53 PM,78.1,53.1,42,30.03,10.0,Variable,5.8,-,N/A,,Clear,0,2013-07-28 18:53:00
2:53 PM,78.1,53.1,42,30.02,10.0,Calm,Calm,-,N/A,,Clear,0,2013-07-28 19:53:00
3:53 PM,78.1,55.0,45,30.02,10.0,Variable,5.8,-,N/A,,Clear,0,2013-07-28 20:53:00
4:53 PM,79.0,54.0,42,30.02,10.0,NW,4.6,-,N/A,,Partly Cloudy,310,2013-07-28 21:53:00
5:53 PM,75.0,55.0,50,30.02,10.0,SSW,3.5,-,N/A,,Scattered Clouds,200,2013-07-28 22:53:00
6:53 PM,72.0,57.9,61,30.04,10.0,SW,5.8,-,N/A,,Clear,230,2013-07-28 23:53:00
7:53 PM,69.1,57.9,68,30.05,10.0,SSW,3.5,-,N/A,,Clear,210,2013-07-29 00:53:00
8:53 PM,66.0,59.0,78,30.05,10.0,SW,3.5,-,N/A,,Clear,230,2013-07-29 01:53:00
9:53 PM,66.9,57.0,70,30.07,10.0,SW,3.5,-,N/A,,Clear,230,2013-07-29 02:53:00
10:53 PM,66.0,57.9,75,30.07,10.0,Calm,Calm,-,N/A,,Clear,0,2013-07-29 03:53:00
11:53 PM,61.0,57.9,90,30.07,10.0,Calm,Calm,-,N/A,,Clear,0,2013-07-29 04:53:00